• Join FlightAware (Why Join?)
  • Login
  • US Flag 
11:21AM EST


 

Airport Tracker/Info


-or-


 

Live Flight TrackerFlight Track Log ✈ EJA729 ✈ 21-Jun-2013 ✈ KMQY - KBCT

Flight Track Log - Related Links

Times and Time Zones

All times are in EDT time to prevent confusion due to time zone crossing. See the EJA729 flight status page for this flight to view local times or setup timezone preferences in your user account.

Time Position Orientation Groundspeed Altitude Reporting Facility
EDT Latitude Longitude Course Direction KTS MPH feet Rate Location/Type
04:46PM 35.9667 -86.5000 158° South 198 228 2,700  Level Nashville TRACON
04:48PM 35.8664 -86.5481 201° Southwest 249 287 9,000 3,900 Climbing Memphis Center
04:49PM 35.7964 -86.5769 199° South 263 303 13,100 3,120 Climbing Memphis Center
04:50PM 35.7083 -86.6244 204° Southwest 315 362 15,400 3,240 Climbing Memphis Center
04:51PM 36.0020 -86.5152 150° Southeast  Level FlightAware Approximate
04:51PM 35.6122 -86.6236 180° South 349 402 19,600  Level Memphis Center
04:53PM 35.4397 -86.4706 144° Southeast 356 410 26,500 3,300 Climbing Atlanta Center
04:54PM 35.3600 -86.3919 141° Southeast 369 425 29,600 2,400 Climbing Atlanta Center
04:55PM 35.2758 -86.3131 143° Southeast 375 432 31,400 1,500 Climbing Atlanta Center
04:56PM 35.1814 -86.2242 142° Southeast 404 465 32,600 1,020 Climbing Atlanta Center
04:57PM 35.0803 -86.1708 157° South 418 481 33,500 1,440 Climbing Atlanta Center
04:58PM 34.9478 -86.1039 158° South 444 511 35,500 1,740 Climbing Atlanta Center
04:59PM 34.8489 -86.0333 150° Southeast 449 517 37,000 1,200 Climbing Atlanta Center
05:00PM 34.7481 -85.9372 142° Southeast 455 524 38,000 1,200 Climbing Atlanta Center
05:02PM 34.5297 -85.7306 142° Southeast 473 544 40,700 960 Climbing Atlanta Center
05:03PM 34.4289 -85.6356 142° Southeast 473 544 41,000 120 Climbing Atlanta Center
05:04PM 34.3403 -85.5508 142° Southeast 457 526 41,000  Level Atlanta Center
05:05PM 34.2411 -85.4561 142° Southeast 457 526 41,000  Level Atlanta Center
05:06PM 34.1400 -85.3614 142° Southeast 457 526 41,000  Level Atlanta Center
05:07PM 34.0386 -85.2672 142° Southeast 462 532 41,000  Level Atlanta Center
05:08PM 33.9353 -85.1731 143° Southeast 462 532 41,000  Level Atlanta Center
05:09PM 33.8317 -85.0792 143° Southeast 462 532 41,000  Level Atlanta Center
05:10PM 33.7281 -84.9831 142° Southeast 468 539 41,000  Level Atlanta Center
05:11PM 33.6244 -84.8869 142° Southeast 468 539 41,000 -480 Level Atlanta Center
05:12PM 33.5103 -84.7836 143° Southeast 468 539 40,100 -540 Descending Atlanta Center
05:13PM 33.4064 -84.6858 142° Southeast 478 550 40,000 -60 Descending Atlanta Center
05:14PM 33.3006 -84.5881 142° Southeast 483 556 40,000  Level Atlanta Center
05:15PM 33.1986 -84.4956 143° Southeast 473 544 40,000  Level Atlanta Center
05:16PM 33.0925 -84.4008 143° Southeast 473 544 40,000  Level Atlanta Center
05:17PM 32.9903 -84.3064 142° Southeast 479 551 40,000  Level Atlanta Center
05:18PM 32.8883 -84.2119 142° Southeast 479 551 40,000  Level Atlanta Center
05:19PM 32.7903 -84.1203 142° Southeast 472 543 40,000  Level Atlanta Center
05:20PM 32.6922 -84.0289 142° Southeast 459 528 40,000  Level Atlanta Center
05:21PM 32.5961 -83.9428 143° Southeast 451 519 40,000  Level Atlanta Center
05:22PM 32.4958 -83.8517 143° Southeast 451 519 40,000  Level Atlanta Center
05:23PM 32.3956 -83.7608 143° Southeast 456 525 40,000  Level Atlanta Center
05:24PM 32.2928 -83.6703 143° Southeast 456 525 40,000  Level Atlanta Center
05:25PM 32.2028 -83.5897 143° Southeast 456 525 40,000  Level Atlanta Center
05:25PM 32.1211 -83.5156 142° Southeast 463 533 40,000  Level Jacksonville Center
05:26PM 32.0131 -83.4217 144° Southeast 463 533 40,000  Level Jacksonville Center
05:27PM 31.9069 -83.3283 143° Southeast 468 539 40,000  Level Jacksonville Center
05:28PM 31.8028 -83.2347 143° Southeast 473 544 40,000  Level Jacksonville Center
05:29PM 31.6944 -83.1442 145° Southeast 473 544 40,000  Level Jacksonville Center
05:30PM 31.5903 -83.0486 142° Southeast 473 544 40,000  Level Jacksonville Center
05:31PM 31.4858 -82.9608 144° Southeast 473 544 40,000  Level Jacksonville Center
05:32PM 31.3794 -82.8683 143° Southeast 473 544 40,000  Level Jacksonville Center
05:33PM 31.2769 -82.7758 142° Southeast 473 544 40,000  Level Jacksonville Center
05:34PM 31.1808 -82.6958 145° Southeast 473 544 40,000  Level Jacksonville Center
05:35PM 31.0658 -82.6014 145° Southeast 473 544 40,000  Level Jacksonville Center
05:36PM 30.9633 -82.5075 142° Southeast 468 539 40,000  Level Jacksonville Center
05:37PM 30.8794 -82.3892 130° Southeast 464 534 40,000  Level Jacksonville Center
05:38PM 30.7975 -82.2661 128° Southeast 470 541 40,000  Level Jacksonville Center
05:39PM 30.7153 -82.1458 128° Southeast 476 548 40,000  Level Jacksonville Center
05:40PM 30.6353 -82.0258 128° Southeast 476 548 40,000  Level Jacksonville Center
05:41PM 30.5508 -81.9061 129° Southeast 476 548 40,000 -60 Level Jacksonville Center
05:42PM 30.4686 -81.7983 131° Southeast 482 555 39,900  Descending Jacksonville Center
05:43PM 30.3778 -81.6861 133° Southeast 482 555 40,000  Climbing Jacksonville Center
05:44PM 30.2806 -81.5842 138° Southeast 476 548 40,000  Level Jacksonville Center
05:45PM 30.1856 -81.4819 137° Southeast 471 542 40,000  Level Jacksonville Center
05:46PM 30.0967 -81.3728 133° Southeast 464 534 40,000 -240 Level Jacksonville Center
05:48PM 29.9984 -81.2673 137° Southeast  Level FlightAware Approximate
05:48PM 29.9206 -81.1528 137° Southeast 464 534 39,400  Level Jacksonville Center
05:49PM 29.8272 -81.0372 133° Southeast 477 549 38,100 -1,440 Descending Jacksonville Center
05:50PM 29.7336 -80.9242 134° Southeast 482 555 36,600 -1,080 Descending Jacksonville Center
05:51PM 29.6319 -80.8258 140° Southeast 477 549 36,000 -300 Descending Jacksonville Center
05:52PM 29.5058 -80.7736 160° South 472 543 36,000  Level Jacksonville Center
05:54PM 29.3008 -80.6992 162° South 455 524 36,000  Level Miami Center
05:55PM 29.1789 -80.6569 163° South 455 524 36,000  Level Miami Center
05:56PM 29.0569 -80.6122 162° South 455 524 36,000  Level Miami Center
05:57PM 28.9350 -80.5678 162° South 455 524 36,000 -300 Level Miami Center
05:58PM 28.8150 -80.5258 163° South 460 529 35,500 -1,200 Descending Miami Center
05:59PM 28.6911 -80.4839 163° South 466 536 33,700 -2,340 Descending Miami Center
06:00PM 28.5525 -80.4322 162° South 472 543 30,900 -2,520 Descending Miami Center
06:01PM 28.4283 -80.3953 165° South 467 537 28,700 -2,160 Descending Miami Center
06:02PM 28.3081 -80.3656 168° South 461 531 26,600 -2,220 Descending Miami Center
06:03PM 28.1917 -80.3383 168° South 466 536 24,300 -2,520 Descending Miami Center
06:04PM 28.0444 -80.3056 169° South 485 558 21,600 -2,400 Descending Miami Center
06:05PM 27.9239 -80.2761 168° South 469 540 19,500 -1,980 Descending Miami Center
06:06PM 27.8119 -80.2492 168° South 440 506 17,700 -1,920 Descending Miami Center
06:07PM 27.7039 -80.2250 169° South 412 474 15,700 -1,800 Descending Miami Center
06:08PM 27.6144 -80.2058 169° South 375 432 14,200 -1,620 Descending Miami Center
06:09PM 27.5128 -80.1819 168° South 352 405 12,500 -1,560 Descending Miami Center
06:10PM 27.4233 -80.1628 169° South 341 392 11,100 -1,200 Descending Miami Center
06:11PM 27.3361 -80.1533 175° South 331 381 10,100 -600 Descending Miami Center
06:12PM 27.2589 -80.1442 174° South 324 373 9,900 -660 Descending Miami Center
06:13PM 27.1756 -80.1372 176° South 309 356 8,800 -1,320 Descending Miami Center
06:14PM 27.0922 -80.1300 176° South 284 327 7,300 -1,440 Descending Miami Center
06:15PM 27.0150 -80.1233 176° South 277 319 6,000 -1,200 Descending Miami Center
06:16PM 26.9400 -80.1142 174° South 272 313 5,000 -540 Descending Miami Center
06:17PM 26.8733 -80.1078 175° South 272 313 5,000  Level Miami Center
06:18PM 26.7881 -80.1006 176° South 278 320 5,000 -660 Level Miami Center
06:20PM 26.6179 -80.1163 194° South  Level FlightAware Approximate
06:21PM 26.5311 -80.1006 180° South 260 299 2,100  Level Miami Center
06:22PM 26.4786 -80.1061 185° South 239 275 2,000 -60 Descending Miami Center
06:23PM 26.4261 -80.1303 202° Southwest 215 247 2,000 -360 Level Miami Center
06:24PM 26.3711 -80.1589 205° Southwest 174 200 1,300 -780 Descending Miami Center
06:25PM 26.3636 -80.1236 103° East 127 146 400 -900 Descending Miami Center
06:27PM 26.3785 -80.1077 180° South  Level Estimated
06:27PM 26.3667 -80.1000 180° South  Level FlightAware Approximate
06:34PM 26.3785 -80.1077 180° South  Level Estimated